createdAt,value
2018-12-15T00:00:17.125Z,679.63
2018-12-15T00:02:49.963Z,746.87
2018-12-15T00:05:22.733Z,936.20
2018-12-15T00:07:53.443Z,774.20
2018-12-15T00:10:24.083Z,957.97
2018-12-15T00:12:54.880Z,1096.50
2018-12-15T00:15:25.583Z,1011.23
2018-12-15T00:17:56.267Z,915.77
2018-12-15T00:20:26.914Z,953.63
2018-12-15T00:22:57.643Z,883.70
2018-12-15T00:25:28.326Z,1090.57
2018-12-15T00:27:59.453Z,1033.70
2018-12-15T00:30:30.190Z,873.00
2018-12-15T00:33:00.836Z,1190.40
2018-12-15T00:35:31.537Z,1114.00
2018-12-15T00:38:02.222Z,1148.07
2018-12-15T00:40:32.878Z,1098.70
2018-12-15T00:43:03.532Z,766.73
2018-12-15T00:45:34.334Z,839.80
2018-12-15T00:48:04.966Z,656.17
2018-12-15T00:50:36.448Z,559.93
2018-12-15T00:53:10.349Z,879.97
2018-12-15T00:55:40.994Z,654.53
2018-12-15T00:58:11.662Z,674.63
2018-12-15T01:00:42.241Z,321.80
2018-12-15T01:03:12.885Z,131.67
2018-12-15T01:05:43.625Z,57.57
2018-12-15T01:08:14.323Z,52.00
2018-12-15T01:10:45.076Z,42.63
2018-12-15T01:13:15.794Z,35.57
2018-12-15T01:15:46.582Z,37.67
2018-12-15T01:18:17.296Z,31.57
2018-12-15T01:20:47.974Z,34.23
2018-12-15T01:23:18.535Z,25.73
2018-12-15T01:25:49.242Z,36.07
2018-12-15T01:28:19.874Z,32.23
2018-12-15T01:30:50.736Z,30.23
2018-12-15T01:33:21.388Z,23.00
2018-12-15T01:35:52.051Z,25.90
2018-12-15T01:38:22.653Z,30.80
2018-12-15T01:40:53.320Z,30.03
2018-12-15T01:43:24.014Z,33.03
2018-12-15T01:45:54.772Z,27.13
2018-12-15T01:48:25.466Z,31.87
2018-12-15T01:50:56.163Z,34.40
2018-12-15T01:53:26.826Z,35.40
2018-12-15T01:55:57.475Z,32.03
2018-12-15T01:58:28.112Z,30.03
2018-12-15T02:00:58.784Z,30.43
2018-12-15T02:03:29.410Z,33.93
2018-12-15T02:06:00.076Z,28.47
2018-12-15T02:08:30.757Z,27.27
2018-12-15T02:11:03.557Z,28.47
2018-12-15T02:13:34.187Z,32.37
2018-12-15T02:16:05.127Z,35.50
2018-12-15T02:18:52.513Z,32.60
2018-12-15T02:21:49.142Z,39.93
2018-12-15T02:24:19.819Z,106.17
2018-12-15T02:26:50.411Z,188.93
2018-12-15T02:29:21.049Z,261.23
2018-12-15T02:31:51.730Z,61.73
2018-12-15T02:34:22.434Z,99.40
2018-12-15T02:36:53.086Z,216.60
2018-12-15T02:39:23.941Z,481.97
2018-12-15T02:41:55.865Z,564.13
2018-12-15T02:44:34.639Z,672.17
2018-12-15T02:47:05.415Z,831.27
2018-12-15T02:49:36.109Z,468.67
2018-12-15T02:52:06.777Z,708.57
2018-12-15T02:54:38.346Z,747.03
2018-12-15T02:57:21.775Z,726.00
2018-12-15T02:59:52.505Z,575.33
2018-12-15T03:02:35.354Z,648.80
2018-12-15T03:05:06.376Z,509.93
2018-12-15T03:07:36.999Z,559.73
2018-12-15T03:10:08.613Z,583.17
2018-12-15T03:12:39.330Z,605.67
2018-12-15T03:15:22.701Z,533.77
2018-12-15T03:17:57.314Z,175.80
2018-12-15T03:20:28.052Z,489.63
2018-12-15T03:22:58.758Z,592.53
2018-12-15T03:25:29.499Z,447.23
2018-12-15T03:28:01.003Z,466.40
2018-12-15T03:30:32.566Z,418.03
2018-12-15T03:33:11.478Z,571.00
2018-12-15T03:35:50.485Z,619.40
2018-12-15T03:38:32.139Z,834.93
2018-12-15T03:41:10.039Z,801.73
2018-12-15T03:43:55.750Z,772.20
2018-12-15T03:46:34.583Z,788.07
2018-12-15T03:49:12.414Z,915.57
2018-12-15T03:51:43.146Z,970.33
2018-12-15T03:54:13.784Z,965.47
2018-12-15T03:56:47.757Z,911.10
2018-12-15T03:59:32.818Z,1126.50
2018-12-15T04:02:12.305Z,1061.10
2018-12-15T04:04:43.065Z,975.67
2018-12-15T04:11:05.806Z,981.93
2018-12-15T04:13:36.484Z,877.73
2018-12-15T04:16:15.345Z,580.83
2018-12-15T04:19:02.139Z,709.70
2018-12-15T04:21:36.830Z,803.93
2018-12-15T04:24:28.519Z,837.40
2018-12-15T04:26:59.188Z,908.27
2018-12-15T04:29:46.338Z,786.43
2018-12-15T04:32:45.157Z,747.90
2018-12-15T04:35:11.575Z,816.40
2018-12-15T04:37:42.203Z,940.93
2018-12-15T04:40:46.751Z,927.93
2018-12-15T04:43:21.453Z,1110.83
2018-12-15T04:46:07.117Z,1012.10
2018-12-15T04:48:52.719Z,991.77
2018-12-15T04:55:10.525Z,1345.97
2018-12-15T04:57:41.294Z,1376.00
2018-12-15T05:00:25.851Z,1384.90
2018-12-15T05:02:56.598Z,1175.20
2018-12-15T05:05:27.306Z,1156.37
2018-12-15T05:08:27.735Z,1024.27
2018-12-15T05:11:09.375Z,1111.43
2018-12-15T05:13:47.303Z,1066.50
2018-12-15T05:16:26.021Z,1014.23
2018-12-15T05:19:00.713Z,1175.27
2018-12-15T05:21:34.826Z,889.00
2018-12-15T05:24:13.616Z,1005.60
2018-12-15T05:26:51.500Z,912.90
2018-12-15T05:29:38.494Z,929.40
2018-12-15T05:32:12.371Z,1232.93
2018-12-15T05:34:57.031Z,1486.07
2018-12-15T05:37:31.756Z,1452.30
2018-12-15T05:40:15.430Z,1493.30
2018-12-15T05:42:50.103Z,1198.57
2018-12-15T05:45:20.731Z,1364.97
2018-12-15T05:51:34.221Z,1251.57
2018-12-15T05:54:14.003Z,1100.13
2018-12-15T05:57:07.808Z,1007.00
2018-12-15T05:59:45.707Z,1135.50
2018-12-15T06:02:42.673Z,1443.27
2018-12-15T06:05:21.923Z,1172.23
2018-12-15T06:07:59.783Z,1290.33
2018-12-15T06:10:43.212Z,822.93
2018-12-15T06:13:26.063Z,1351.37
2018-12-15T06:16:04.582Z,1019.80
2018-12-15T06:18:42.968Z,1011.33
2018-12-15T06:21:26.420Z,1004.40
2018-12-15T06:24:35.511Z,1074.53
2018-12-15T06:30:40.739Z,1267.63
2018-12-15T06:33:11.461Z,1393.63
2018-12-15T06:35:42.171Z,1293.33
2018-12-15T06:38:59.110Z,1296.70
2018-12-15T06:41:29.939Z,1159.30
2018-12-15T06:44:13.549Z,1129.10
2018-12-15T06:47:10.106Z,1422.77
2018-12-15T06:49:40.955Z,1374.87
2018-12-15T06:52:11.694Z,1232.43
2018-12-15T06:54:42.454Z,1487.23
2018-12-15T06:57:13.147Z,1412.37
2018-12-15T06:59:43.880Z,1725.27
2018-12-15T07:02:14.733Z,1438.27
2018-12-15T07:04:46.367Z,1617.60
2018-12-15T07:07:17.839Z,1427.40
2018-12-15T07:17:09.118Z,1561.83
2018-12-15T07:19:40.584Z,1430.07
2018-12-15T07:22:51.649Z,1549.50
2018-12-15T07:25:35.067Z,1565.17
2018-12-15T07:28:05.828Z,1487.97
2018-12-15T07:30:47.434Z,1580.40
2018-12-15T07:33:18.132Z,1257.53
2018-12-15T07:35:56.795Z,1153.73
2018-12-15T07:38:41.552Z,1212.30
2018-12-15T07:41:12.218Z,1044.97
2018-12-15T07:43:43.069Z,1010.60
2018-12-15T07:46:13.776Z,986.00
2018-12-15T07:48:44.566Z,826.03
2018-12-15T07:51:16.842Z,959.67
2018-12-15T07:53:57.879Z,985.67
2018-12-15T07:56:38.544Z,693.27
2018-12-15T07:59:17.301Z,992.27
2018-12-15T08:01:56.019Z,978.13
2018-12-15T08:04:26.757Z,1281.57
2018-12-15T08:07:10.391Z,1067.70
2018-12-15T08:09:43.499Z,781.43
2018-12-15T08:15:53.930Z,816.60
2018-12-15T08:18:24.720Z,766.37
2018-12-15T08:21:11.196Z,670.40
2018-12-15T08:27:11.096Z,349.67
2018-12-15T08:29:41.781Z,403.93
2018-12-15T08:32:12.554Z,483.37
2018-12-15T08:34:50.711Z,411.70
2018-12-15T08:37:21.384Z,421.90
2018-12-15T08:40:19.599Z,381.33
2018-12-15T08:42:50.256Z,193.43
2018-12-15T08:45:20.949Z,136.37
2018-12-15T08:47:51.696Z,366.90
2018-12-15T08:50:22.589Z,269.93
2018-12-15T08:52:53.377Z,236.27
2018-12-15T08:55:24.136Z,237.23
2018-12-15T08:57:54.858Z,345.63
2018-12-15T09:00:48.679Z,224.53
2018-12-15T09:03:19.377Z,212.60
2018-12-15T09:05:51.201Z,402.63
2018-12-15T09:08:21.854Z,572.90
2018-12-15T09:10:52.563Z,497.33
2018-12-15T09:13:23.233Z,495.93
2018-12-15T09:15:53.926Z,616.70
2018-12-15T09:18:34.685Z,619.20
2018-12-15T09:21:05.402Z,496.57
2018-12-15T09:23:36.069Z,426.73
2018-12-15T09:26:31.715Z,692.40
2018-12-15T09:29:02.355Z,534.97
2018-12-15T09:31:33.136Z,858.03
2018-12-15T09:34:10.967Z,705.50
2018-12-15T09:37:28.063Z,824.97
2018-12-15T09:40:11.082Z,732.33
2018-12-15T09:46:03.637Z,779.07
2018-12-15T09:48:34.300Z,845.63
2018-12-15T09:51:04.987Z,902.43
2018-12-15T09:53:35.800Z,625.03
2018-12-15T09:56:06.672Z,842.73
2018-12-15T09:58:37.313Z,733.53
2018-12-15T10:01:08.027Z,1025.13
2018-12-15T10:03:38.757Z,825.37
2018-12-15T10:06:39.094Z,885.30
2018-12-15T10:09:09.703Z,973.13
2018-12-15T10:11:40.425Z,926.80
2018-12-15T10:14:11.154Z,993.00
2018-12-15T10:16:43.029Z,1144.37
2018-12-15T10:19:13.781Z,1141.07
2018-12-15T10:21:44.467Z,1072.37
2018-12-15T10:24:15.162Z,1052.80
2018-12-15T10:26:47.038Z,1040.97
2018-12-15T10:29:22.444Z,1076.03
2018-12-15T10:31:58.915Z,1250.63
2018-12-15T10:34:29.543Z,1678.57
2018-12-15T10:37:00.248Z,1436.27
2018-12-15T10:39:30.985Z,1439.83
2018-12-15T10:42:01.747Z,1484.93
2018-12-15T10:44:32.373Z,1400.37
2018-12-15T10:47:03.143Z,1368.57
2018-12-15T10:49:36.007Z,1298.27
2018-12-15T10:52:06.703Z,1271.43
2018-12-15T10:54:37.553Z,1438.07
2018-12-15T10:57:08.334Z,1167.73
2018-12-15T10:59:38.987Z,1214.77
2018-12-15T11:02:10.065Z,1492.00
2018-12-15T11:04:40.745Z,1472.83
2018-12-15T11:07:11.507Z,1463.07
2018-12-15T11:09:42.164Z,850.17
2018-12-15T11:12:12.889Z,1615.77
2018-12-15T11:14:44.675Z,1606.10
2018-12-15T11:17:15.393Z,1324.63
2018-12-15T11:19:46.082Z,1549.77
2018-12-15T11:22:16.845Z,1661.83
2018-12-15T11:24:47.485Z,983.33
2018-12-15T11:27:18.139Z,1275.07
2018-12-15T11:29:48.779Z,1498.00
2018-12-15T11:32:19.483Z,1634.07
2018-12-15T11:34:50.198Z,1392.80
2018-12-15T11:37:20.847Z,1197.23
2018-12-15T11:39:51.534Z,1455.67
2018-12-15T11:42:22.111Z,1074.30
2018-12-15T11:44:52.716Z,1115.80
2018-12-15T11:47:23.655Z,1557.07
2018-12-15T11:49:54.371Z,1054.60
2018-12-15T11:52:25.092Z,1111.30
2018-12-15T11:54:55.764Z,943.97
2018-12-15T11:57:26.394Z,1151.13
2018-12-15T11:59:58.167Z,1037.30
2018-12-15T12:02:31.900Z,1065.60
2018-12-15T12:05:50.592Z,919.17
2018-12-15T12:08:21.308Z,1096.33
2018-12-15T12:10:51.995Z,1148.17
2018-12-15T12:13:22.643Z,932.87
2018-12-15T12:15:53.390Z,1026.27
2018-12-15T12:18:24.574Z,909.37
2018-12-15T12:21:11.345Z,970.97
2018-12-15T12:23:42.009Z,991.57
2018-12-15T12:26:14.776Z,1119.40
2018-12-15T12:28:45.469Z,1142.80
2018-12-15T12:31:16.080Z,946.97
2018-12-15T12:33:46.839Z,1057.70
2018-12-15T12:36:17.467Z,884.70
2018-12-15T12:38:48.264Z,1163.67
2018-12-15T12:41:18.916Z,1125.90
2018-12-15T12:43:49.607Z,1031.23
2018-12-15T12:46:20.178Z,1040.37
2018-12-15T12:48:50.763Z,1259.50
2018-12-15T12:51:21.420Z,1447.00
2018-12-15T12:53:52.146Z,1132.43
2018-12-15T12:56:22.747Z,1227.57
2018-12-15T12:58:53.414Z,1018.17
2018-12-15T13:01:31.857Z,952.07
2018-12-15T13:04:02.537Z,983.53
2018-12-15T13:06:33.231Z,1189.13
2018-12-15T13:09:04.088Z,919.27
2018-12-15T13:11:35.916Z,1076.60
2018-12-15T13:14:06.678Z,950.03
2018-12-15T13:16:37.306Z,953.40
2018-12-15T13:19:18.254Z,970.10
2018-12-15T13:21:48.980Z,987.03
2018-12-15T13:24:19.582Z,769.27
2018-12-15T13:26:50.264Z,1038.33
2018-12-15T13:29:20.897Z,989.23
2018-12-15T13:31:51.500Z,1113.57
2018-12-15T13:34:22.264Z,1151.47
2018-12-15T13:36:53.055Z,1020.27
2018-12-15T13:39:31.525Z,1215.37
2018-12-15T13:42:02.592Z,911.07
2018-12-15T13:44:33.315Z,1018.00
2018-12-15T13:47:04.066Z,1100.20
2018-12-15T13:49:34.759Z,1163.57
2018-12-15T13:52:05.727Z,898.57
2018-12-15T13:54:44.246Z,844.77
2018-12-15T13:57:14.955Z,967.30
2018-12-15T13:59:45.742Z,966.70
2018-12-15T14:02:16.400Z,821.43
2018-12-15T14:04:47.055Z,974.00
2018-12-15T14:07:17.763Z,1011.93
2018-12-15T14:09:49.252Z,947.47
2018-12-15T14:12:20.049Z,886.60
2018-12-15T14:14:50.562Z,1137.53
2018-12-15T14:17:21.308Z,1035.43
2018-12-15T14:19:52.028Z,1100.63
2018-12-15T14:22:22.740Z,1065.93
2018-12-15T14:24:53.487Z,1285.13
2018-12-15T14:27:24.201Z,1273.13
2018-12-15T14:29:54.940Z,978.87
2018-12-15T14:32:25.607Z,1042.13
2018-12-15T14:35:29.464Z,1215.60
2018-12-15T14:38:07.980Z,1175.13
2018-12-15T14:40:56.208Z,1093.40
2018-12-15T14:43:26.990Z,1228.70
2018-12-15T14:45:57.609Z,1119.07
2018-12-15T14:48:28.287Z,1041.37
2018-12-15T14:51:06.291Z,1086.73
2018-12-15T14:57:26.185Z,1187.53
2018-12-15T14:59:56.898Z,951.00
2018-12-15T15:02:35.545Z,1023.37
2018-12-15T15:05:06.580Z,899.50
2018-12-15T15:07:37.326Z,906.67
2018-12-15T15:10:16.227Z,1154.10
2018-12-15T15:12:46.918Z,952.60
2018-12-15T15:15:17.619Z,849.60
2018-12-15T15:17:48.291Z,778.73
2018-12-15T15:20:18.964Z,944.57
2018-12-15T15:22:49.572Z,957.47
2018-12-15T15:25:20.331Z,1014.80
2018-12-15T15:27:51.006Z,990.87
2018-12-15T15:30:21.697Z,923.07
2018-12-15T15:32:52.377Z,782.53
2018-12-15T15:35:23.253Z,836.57
2018-12-15T15:37:55.619Z,793.13
2018-12-15T15:40:26.415Z,986.67
2018-12-15T15:42:57.106Z,933.10
2018-12-15T15:45:27.745Z,914.20
2018-12-15T15:47:58.455Z,1034.40
2018-12-15T15:50:36.295Z,720.60
2018-12-15T15:53:04.677Z,615.83
2018-12-15T15:55:42.787Z,681.77
2018-12-15T15:58:13.442Z,635.63
2018-12-15T16:00:44.932Z,609.37
2018-12-15T16:03:22.997Z,758.67
2018-12-15T16:05:53.714Z,829.27
2018-12-15T16:08:24.536Z,815.87
2018-12-15T16:10:55.291Z,815.90
2018-12-15T16:13:26.220Z,866.47
2018-12-15T16:16:01.726Z,959.33
2018-12-15T16:21:53.845Z,832.83
2018-12-15T16:24:32.779Z,734.93
2018-12-15T16:27:12.635Z,874.87
2018-12-15T16:29:43.433Z,901.03
2018-12-15T16:32:14.225Z,833.27
2018-12-15T16:34:45.508Z,770.13
2018-12-15T16:37:50.715Z,679.17
2018-12-15T16:40:29.817Z,714.80
2018-12-15T16:43:00.631Z,787.03
2018-12-15T16:49:12.539Z,864.17
2018-12-15T16:51:43.466Z,1043.83
2018-12-15T16:54:14.177Z,797.10
2018-12-15T16:56:44.908Z,899.60
2018-12-15T16:59:15.700Z,699.00
2018-12-15T17:01:46.384Z,779.50
2018-12-15T17:04:29.855Z,918.67
2018-12-15T17:07:03.677Z,969.03
2018-12-15T17:09:34.465Z,704.00
2018-12-15T17:12:05.240Z,902.97
2018-12-15T17:18:06.774Z,791.43
2018-12-15T17:20:58.147Z,811.00
2018-12-15T17:23:31.035Z,912.33
2018-12-15T17:26:10.376Z,1110.23
2018-12-15T17:28:41.041Z,810.43
2018-12-15T17:31:22.537Z,994.80
2018-12-15T17:33:53.350Z,936.97
2018-12-15T17:36:32.972Z,909.13
2018-12-15T17:39:04.777Z,958.17
2018-12-15T17:41:43.533Z,682.53
2018-12-15T17:44:15.369Z,972.37
2018-12-15T17:46:53.737Z,593.60
2018-12-15T17:49:35.778Z,833.17
2018-12-15T17:52:16.033Z,791.40
2018-12-15T17:54:47.806Z,699.67
2018-12-15T17:57:18.550Z,796.57
2018-12-15T18:03:28.491Z,882.17
2018-12-15T18:05:59.155Z,854.70
2018-12-15T18:08:37.794Z,646.87
2018-12-15T18:11:08.437Z,750.60
2018-12-15T18:13:39.063Z,653.40
2018-12-15T18:16:09.794Z,867.53
2018-12-15T18:18:40.895Z,754.43
2018-12-15T18:21:11.575Z,744.93
2018-12-15T18:23:43.417Z,831.07
2018-12-15T18:26:14.100Z,871.73
2018-12-15T18:29:18.249Z,751.63
2018-12-15T18:31:48.935Z,931.60
2018-12-15T18:34:19.685Z,936.67
2018-12-15T18:36:57.448Z,916.70
2018-12-15T18:39:36.247Z,822.20
2018-12-15T18:45:45.234Z,974.07
2018-12-15T18:48:15.925Z,839.20
2018-12-15T18:50:46.650Z,989.90
2018-12-15T18:53:25.063Z,712.20
2018-12-15T18:56:03.734Z,905.17
2018-12-15T18:59:13.856Z,890.87
2018-12-15T19:02:07.266Z,916.03
2018-12-15T19:04:45.906Z,820.83
2018-12-15T19:07:24.324Z,766.50
2018-12-15T19:10:04.192Z,620.80
2018-12-15T19:12:35.055Z,881.23
2018-12-15T19:15:39.749Z,796.73
2018-12-15T19:18:18.057Z,756.27
2018-12-15T19:20:59.615Z,678.27
2018-12-15T20:36:43.398Z,812.50
2018-12-15T20:54:24.980Z,642.73
2018-12-15T21:26:51.184Z,1089.60
2018-12-15T21:29:55.023Z,1146.87
2018-12-15T21:32:39.679Z,1100.93
2018-12-15T21:35:39.230Z,1478.80
2018-12-15T21:42:02.794Z,1308.47
2018-12-15T21:48:36.598Z,1150.67
2018-12-15T21:51:41.923Z,1261.97
2018-12-15T21:54:25.419Z,1129.27
2018-12-15T21:57:04.477Z,1134.93
2018-12-15T22:03:31.403Z,708.53
2018-12-15T22:06:10.495Z,606.70
2018-12-15T22:08:48.942Z,604.50
2018-12-15T22:11:21.497Z,691.17
2018-12-15T22:25:15.861Z,1525.87
2018-12-15T22:39:04.426Z,1302.20
2018-12-15T22:42:08.790Z,1758.27
2018-12-15T22:44:50.436Z,1483.40
2018-12-15T22:47:21.127Z,1546.63
2018-12-15T22:50:05.923Z,1164.47
2018-12-15T22:52:36.685Z,1414.40
2018-12-15T22:55:28.995Z,1288.70
2018-12-15T22:57:59.729Z,1200.60
2018-12-15T23:00:43.490Z,1120.07
2018-12-15T23:03:30.494Z,1061.20
2018-12-15T23:06:12.167Z,1347.53
2018-12-15T23:09:20.419Z,1098.43
2018-12-15T23:11:58.402Z,1088.17
2018-12-15T23:14:46.957Z,1276.77
2018-12-15T23:17:40.658Z,1370.80
2018-12-15T23:20:22.397Z,1260.53
2018-12-15T23:22:53.243Z,1310.17
2018-12-15T23:33:05.550Z,1301.23
2018-12-15T23:39:14.321Z,1401.33
2018-12-15T23:41:52.292Z,1152.67
2018-12-15T23:44:52.680Z,1138.20
2018-12-15T23:47:34.402Z,985.83
2018-12-15T23:50:13.017Z,997.40
2018-12-15T23:52:50.695Z,1083.03
2018-12-15T23:55:31.515Z,1231.17
2018-12-15T23:58:20.397Z,913.87
